Summit, New Jersey
Current Conditions -  °F | °C
As of 3:45 PM on Saturday 27 Dec 2014 (Local Time) from KMMU Reporting Station
Scattered Clouds Scattered Clouds  
Wind Chill: 13°   Ceiling: Unl
Heat Index: 13°   Visibility: 10mi
Dew Point:   Wind: 7mph
Humidity: 47%   Direction: 240°WSW
Pressure: 30.17"   Gusts: NA
Location:  40.72°N, 74.36°W
Report Text: KMMU 272045Z 24006KT 10SM SCT250 13/02 A3017
Loading
Personal Weather Stations






























Interactive Weather Map New forecast layout! Learn more

10-Day Weather Forecast

Advertisements
Track Severe Weather on mobile